createdAt,value
2018-11-06T00:01:11.186Z,89.77
2018-11-06T00:03:47.370Z,90.90
2018-11-06T00:06:17.690Z,95.47
2018-11-06T00:08:48.035Z,92.50
2018-11-06T00:11:19.088Z,92.07
2018-11-06T00:13:49.481Z,75.23
2018-11-06T00:16:19.944Z,84.43
2018-11-06T00:18:50.411Z,83.67
2018-11-06T00:21:20.759Z,88.73
2018-11-06T00:23:51.180Z,74.03
2018-11-06T00:26:26.670Z,78.63
2018-11-06T00:28:57.240Z,83.87
2018-11-06T00:31:27.610Z,96.20
2018-11-06T00:34:04.900Z,91.77
2018-11-06T00:36:35.197Z,84.27
2018-11-06T00:39:07.034Z,83.87
2018-11-06T00:41:37.435Z,80.90
2018-11-06T00:44:07.900Z,85.23
2018-11-06T00:46:38.328Z,88.57
2018-11-06T00:49:09.515Z,90.07
2018-11-06T00:51:39.938Z,83.57
2018-11-06T00:54:10.573Z,98.83
2018-11-06T00:56:40.907Z,89.00
2018-11-06T00:59:11.246Z,90.97
2018-11-06T01:01:41.713Z,92.43
2018-11-06T01:04:13.676Z,88.77
2018-11-06T01:06:44.048Z,80.87
2018-11-06T01:09:15.722Z,80.40
2018-11-06T01:11:46.028Z,85.80
2018-11-06T01:14:16.432Z,78.40
2018-11-06T01:16:46.771Z,80.17
2018-11-06T01:19:17.250Z,83.63
2018-11-06T01:21:47.552Z,75.63
2018-11-06T01:24:17.853Z,85.23
2018-11-06T01:26:48.399Z,71.20
2018-11-06T01:29:18.744Z,87.13
2018-11-06T01:31:49.065Z,96.97
2018-11-06T01:34:19.400Z,87.47
2018-11-06T01:36:49.797Z,83.43
2018-11-06T01:39:20.246Z,92.03
2018-11-06T01:41:50.447Z,87.57
2018-11-06T01:44:20.870Z,88.87
2018-11-06T01:46:51.177Z,88.43
2018-11-06T01:49:21.697Z,77.17
2018-11-06T01:51:52.004Z,74.93
2018-11-06T01:54:22.391Z,82.53
2018-11-06T01:56:52.805Z,86.03
2018-11-06T01:59:23.261Z,81.33
2018-11-06T02:01:53.415Z,77.30
2018-11-06T02:04:23.795Z,85.63
2018-11-06T02:06:54.174Z,82.50
2018-11-06T02:09:24.428Z,79.87
2018-11-06T02:11:54.811Z,87.83
2018-11-06T02:14:25.320Z,79.87
2018-11-06T02:16:55.707Z,95.23
2018-11-06T02:19:26.161Z,92.40
2018-11-06T02:21:56.437Z,79.33
2018-11-06T02:24:26.819Z,80.20
2018-11-06T02:26:57.339Z,90.77
2018-11-06T02:29:27.622Z,96.97
2018-11-06T02:31:57.955Z,84.53
2018-11-06T02:34:28.428Z,80.03
2018-11-06T02:36:58.588Z,90.33
2018-11-06T02:39:28.927Z,88.00
2018-11-06T02:41:59.251Z,86.70
2018-11-06T02:44:29.723Z,90.27
2018-11-06T02:47:00.113Z,93.00
2018-11-06T02:49:30.443Z,92.57
2018-11-06T02:52:00.862Z,88.37
2018-11-06T02:54:31.235Z,88.23
2018-11-06T02:57:01.538Z,93.33
2018-11-06T02:59:31.939Z,90.87
2018-11-06T03:02:02.381Z,85.60
2018-11-06T03:04:32.918Z,100.23
2018-11-06T03:07:03.112Z,91.37
2018-11-06T03:09:33.663Z,88.57
2018-11-06T03:12:03.886Z,78.27
2018-11-06T03:14:34.212Z,85.10
2018-11-06T03:17:04.565Z,80.43
2018-11-06T03:19:34.981Z,79.90
2018-11-06T03:22:05.335Z,83.53
2018-11-06T03:24:35.498Z,100.50
2018-11-06T03:27:05.932Z,89.57
2018-11-06T03:29:36.378Z,85.57
2018-11-06T03:32:07.011Z,94.60
2018-11-06T03:34:38.896Z,96.10
2018-11-06T03:37:09.533Z,94.87
2018-11-06T03:39:39.698Z,79.77
2018-11-06T03:42:10.092Z,97.53
2018-11-06T03:44:40.630Z,87.30
2018-11-06T03:47:11.062Z,92.73
2018-11-06T03:49:41.622Z,93.17
2018-11-06T03:52:11.816Z,92.83
2018-11-06T03:54:42.195Z,84.73
2018-11-06T03:57:12.594Z,90.67
2018-11-06T03:59:43.066Z,95.23
2018-11-06T04:02:13.371Z,85.80
2018-11-06T04:04:43.877Z,79.70
2018-11-06T04:07:14.394Z,86.60
2018-11-06T04:09:44.862Z,84.67
2018-11-06T04:12:15.128Z,79.73
2018-11-06T04:14:45.558Z,86.27
2018-11-06T04:17:15.970Z,89.20
2018-11-06T04:19:46.509Z,91.73
2018-11-06T04:22:16.835Z,97.23
2018-11-06T04:24:47.327Z,100.40
2018-11-06T04:27:17.902Z,87.03
2018-11-06T04:29:48.528Z,95.87
2018-11-06T04:32:19.089Z,103.53
2018-11-06T04:34:49.419Z,83.70
2018-11-06T04:37:19.688Z,87.47
2018-11-06T04:39:50.071Z,82.93
2018-11-06T04:42:20.648Z,84.07
2018-11-06T04:44:50.915Z,85.30
2018-11-06T04:47:21.339Z,87.30
2018-11-06T04:49:51.723Z,88.67
2018-11-06T04:52:22.189Z,71.23
2018-11-06T04:54:52.429Z,74.80
2018-11-06T04:57:22.808Z,80.90
2018-11-06T04:59:53.214Z,73.93
2018-11-06T05:02:23.693Z,87.40
2018-11-06T05:04:54.016Z,75.53
2018-11-06T05:07:24.392Z,74.60
2018-11-06T05:09:54.889Z,71.43
2018-11-06T05:12:25.299Z,75.33
2018-11-06T05:14:55.517Z,73.93
2018-11-06T05:17:25.982Z,82.07
2018-11-06T05:19:56.434Z,82.57
2018-11-06T05:22:26.937Z,70.90
2018-11-06T05:24:57.460Z,73.47
2018-11-06T05:27:28.013Z,83.33
2018-11-06T05:29:58.308Z,71.97
2018-11-06T05:32:28.670Z,72.20
2018-11-06T05:34:59.207Z,77.33
2018-11-06T05:37:29.660Z,74.73
2018-11-06T05:40:16.391Z,74.73
2018-11-06T05:42:46.800Z,72.17
2018-11-06T05:45:17.112Z,84.20
2018-11-06T05:47:47.422Z,73.50
2018-11-06T05:50:17.910Z,71.70
2018-11-06T05:52:48.405Z,63.60
2018-11-06T05:55:18.732Z,81.57
2018-11-06T05:57:49.161Z,89.70
2018-11-06T06:00:19.794Z,68.40
2018-11-06T06:02:50.007Z,74.30
2018-11-06T06:05:20.421Z,72.33
2018-11-06T06:07:50.838Z,75.50
2018-11-06T06:10:21.323Z,71.47
2018-11-06T06:12:51.651Z,64.90
2018-11-06T06:15:22.011Z,68.30
2018-11-06T06:17:52.639Z,70.27
2018-11-06T06:20:23.273Z,72.17
2018-11-06T06:22:53.760Z,65.43
2018-11-06T06:25:24.177Z,69.33
2018-11-06T06:27:54.676Z,88.23
2018-11-06T06:30:25.248Z,70.87
2018-11-06T06:32:55.756Z,77.07
2018-11-06T06:35:26.350Z,80.70
2018-11-06T06:37:56.717Z,79.40
2018-11-06T06:40:27.062Z,83.17
2018-11-06T06:42:57.496Z,69.40
2018-11-06T06:45:27.919Z,68.87
2018-11-06T06:47:58.240Z,67.57
2018-11-06T06:50:28.529Z,65.20
2018-11-06T06:52:58.995Z,63.43
2018-11-06T06:55:29.345Z,61.67
2018-11-06T06:57:59.703Z,76.63
2018-11-06T07:00:30.080Z,67.97
2018-11-06T07:03:00.477Z,71.60
2018-11-06T07:05:30.821Z,67.77
2018-11-06T07:08:01.258Z,65.80
2018-11-06T07:10:31.858Z,66.50
2018-11-06T07:13:02.211Z,65.83
2018-11-06T07:15:32.883Z,59.50
2018-11-06T07:18:03.232Z,61.50
2018-11-06T07:20:33.650Z,64.47
2018-11-06T07:23:04.116Z,64.77
2018-11-06T07:25:34.569Z,59.90
2018-11-06T07:28:05.394Z,73.10
2018-11-06T07:30:35.575Z,61.00
2018-11-06T07:33:05.996Z,67.17
2018-11-06T07:35:37.554Z,58.40
2018-11-06T07:38:07.662Z,68.17
2018-11-06T07:40:38.127Z,56.60
2018-11-06T07:43:08.480Z,60.97
2018-11-06T07:45:38.902Z,62.23
2018-11-06T07:48:09.237Z,57.03
2018-11-06T07:50:39.642Z,60.53
2018-11-06T07:53:10.060Z,63.97
2018-11-06T07:55:40.494Z,53.43
2018-11-06T07:58:10.814Z,63.83
2018-11-06T08:00:41.377Z,64.93
2018-11-06T08:03:11.676Z,60.00
2018-11-06T08:05:42.038Z,64.70
2018-11-06T08:08:12.263Z,56.03
2018-11-06T08:10:42.652Z,60.53
2018-11-06T08:13:12.901Z,63.17
2018-11-06T08:15:43.301Z,70.80
2018-11-06T08:18:13.822Z,66.50
2018-11-06T08:20:44.463Z,66.13
2018-11-06T08:23:14.752Z,62.20
2018-11-06T08:25:45.345Z,58.03
2018-11-06T08:28:15.945Z,59.13
2018-11-06T08:30:46.563Z,66.70
2018-11-06T08:33:16.824Z,61.87
2018-11-06T08:35:47.332Z,60.20
2018-11-06T08:38:17.722Z,62.17
2018-11-06T08:40:48.289Z,59.17
2018-11-06T08:43:18.634Z,60.80
2018-11-06T08:45:49.142Z,61.03
2018-11-06T08:48:19.485Z,64.50
2018-11-06T08:50:49.743Z,55.50
2018-11-06T08:53:20.109Z,69.37
2018-11-06T08:55:50.470Z,58.53
2018-11-06T08:58:20.850Z,65.67
2018-11-06T09:00:51.289Z,60.43
2018-11-06T09:03:21.810Z,55.20
2018-11-06T09:05:52.235Z,58.80
2018-11-06T09:08:22.395Z,57.53
2018-11-06T09:10:52.837Z,60.63
2018-11-06T09:13:23.288Z,61.63
2018-11-06T09:15:53.773Z,49.03
2018-11-06T09:18:24.131Z,62.07
2018-11-06T09:20:54.543Z,60.60
2018-11-06T09:23:25.015Z,49.20
2018-11-06T09:25:55.469Z,57.43
2018-11-06T09:28:25.736Z,59.73
2018-11-06T09:30:56.106Z,62.70
2018-11-06T09:33:26.622Z,65.03
2018-11-06T09:35:57.096Z,52.00
2018-11-06T09:38:27.575Z,56.70
2018-11-06T09:40:57.927Z,47.30
2018-11-06T09:43:28.187Z,48.50
2018-11-06T09:45:58.575Z,47.97
2018-11-06T09:48:28.850Z,46.83
2018-11-06T09:50:59.332Z,48.17
2018-11-06T09:53:29.546Z,50.13
2018-11-06T09:55:59.848Z,46.73
2018-11-06T09:58:30.094Z,52.63
2018-11-06T10:01:00.271Z,47.77
2018-11-06T10:03:30.547Z,45.20
2018-11-06T10:06:00.887Z,42.97
2018-11-06T10:08:31.344Z,39.53
2018-11-06T10:11:01.746Z,38.23
2018-11-06T10:13:32.096Z,38.00
2018-11-06T10:16:02.581Z,36.30
2018-11-06T10:18:32.894Z,41.97
2018-11-06T10:21:03.561Z,37.30
2018-11-06T10:23:34.033Z,37.27
2018-11-06T10:26:04.479Z,39.87
2018-11-06T10:28:34.764Z,35.90
2018-11-06T10:31:05.382Z,33.13
2018-11-06T10:33:35.878Z,40.07
2018-11-06T10:36:06.406Z,37.23
2018-11-06T10:38:36.801Z,33.60
2018-11-06T10:41:07.247Z,35.57
2018-11-06T10:43:38.039Z,31.50
2018-11-06T10:46:08.404Z,32.47
2018-11-06T10:48:38.715Z,30.17
2018-11-06T10:51:09.161Z,29.17
2018-11-06T10:53:39.409Z,35.10
2018-11-06T10:56:09.824Z,39.20
2018-11-06T10:58:40.390Z,31.73
2018-11-06T11:01:15.911Z,29.80
2018-11-06T11:03:51.446Z,29.40
2018-11-06T11:06:21.883Z,28.80
2018-11-06T11:08:52.181Z,27.67
2018-11-06T11:11:22.622Z,25.67
2018-11-06T11:13:53.010Z,27.50
2018-11-06T11:16:23.372Z,25.20
2018-11-06T11:18:53.972Z,28.60
2018-11-06T11:21:24.425Z,33.77
2018-11-06T11:23:54.776Z,29.70
2018-11-06T11:26:25.260Z,30.93
2018-11-06T11:28:55.675Z,32.73
2018-11-06T11:31:26.181Z,29.03
2018-11-06T11:33:56.496Z,28.90
2018-11-06T11:36:26.971Z,27.90
2018-11-06T11:38:57.329Z,26.07
2018-11-06T11:41:27.793Z,28.50
2018-11-06T11:43:58.159Z,28.30
2018-11-06T11:46:28.488Z,28.53
2018-11-06T11:48:58.689Z,32.87
2018-11-06T11:51:29.005Z,33.27
2018-11-06T11:53:59.240Z,30.60
2018-11-06T11:56:30.150Z,30.40
2018-11-06T11:59:00.366Z,29.20
2018-11-06T12:01:30.773Z,26.20
2018-11-06T12:04:01.124Z,28.93
2018-11-06T12:06:31.493Z,36.43
2018-11-06T12:09:01.939Z,30.27
2018-11-06T12:11:32.366Z,30.47
2018-11-06T12:14:02.951Z,32.40
2018-11-06T12:16:33.228Z,32.13
2018-11-06T12:19:03.495Z,26.97
2018-11-06T12:21:33.951Z,28.50
2018-11-06T12:24:05.017Z,33.20
2018-11-06T12:26:35.445Z,44.53
2018-11-06T12:29:05.963Z,32.90
2018-11-06T12:31:36.222Z,32.67
2018-11-06T12:34:07.048Z,33.43
2018-11-06T12:36:37.614Z,32.20
2018-11-06T12:39:10.157Z,33.77
2018-11-06T12:41:40.622Z,29.13
2018-11-06T12:44:11.169Z,34.67
2018-11-06T12:46:41.498Z,30.10
2018-11-06T12:49:11.856Z,32.73
2018-11-06T12:51:42.335Z,39.80
2018-11-06T12:54:12.636Z,33.70
2018-11-06T12:56:43.024Z,38.50
2018-11-06T12:59:13.332Z,35.87
2018-11-06T13:01:43.776Z,39.43
2018-11-06T13:04:14.257Z,39.90
2018-11-06T13:06:44.609Z,36.27
2018-11-06T13:09:15.092Z,38.47
2018-11-06T13:11:45.492Z,35.83
2018-11-06T13:14:15.750Z,37.13
2018-11-06T13:16:46.126Z,40.13
2018-11-06T13:19:16.414Z,39.40
2018-11-06T13:21:46.769Z,34.80
2018-11-06T13:24:17.132Z,36.97
2018-11-06T13:26:47.523Z,40.03
2018-11-06T13:29:18.035Z,38.67
2018-11-06T13:31:48.588Z,37.83
2018-11-06T13:34:18.801Z,37.67
2018-11-06T13:36:49.338Z,38.70
2018-11-06T13:39:19.583Z,34.13
2018-11-06T13:41:50.088Z,38.37
2018-11-06T13:44:21.296Z,44.53
2018-11-06T13:46:51.580Z,36.47
2018-11-06T13:49:21.972Z,47.60
2018-11-06T13:51:52.494Z,38.73
2018-11-06T13:54:22.754Z,44.00
2018-11-06T13:56:53.272Z,41.17
2018-11-06T13:59:23.726Z,41.20
2018-11-06T14:01:54.215Z,44.50
2018-11-06T14:04:24.511Z,42.30
2018-11-06T14:06:54.887Z,38.87
2018-11-06T14:09:25.360Z,44.17
2018-11-06T14:11:55.787Z,40.33
2018-11-06T14:14:26.128Z,44.53
2018-11-06T14:16:56.482Z,42.93
2018-11-06T14:19:26.866Z,46.57
2018-11-06T14:21:57.176Z,46.80
2018-11-06T14:24:27.657Z,51.13
2018-11-06T14:26:58.162Z,47.50
2018-11-06T14:29:28.375Z,59.63
2018-11-06T14:31:58.723Z,49.00
2018-11-06T14:34:29.029Z,44.73
2018-11-06T14:36:59.248Z,52.47
2018-11-06T14:39:29.454Z,53.07
2018-11-06T14:42:00.280Z,59.87
2018-11-06T14:44:30.660Z,49.27
2018-11-06T14:47:01.188Z,58.27
2018-11-06T14:49:31.336Z,48.97
2018-11-06T14:52:01.844Z,48.63
2018-11-06T14:54:32.150Z,49.57
2018-11-06T14:57:02.455Z,49.30
2018-11-06T14:59:32.852Z,54.27
2018-11-06T15:02:03.343Z,54.53
2018-11-06T15:04:33.615Z,50.53
2018-11-06T15:07:03.979Z,50.20
2018-11-06T15:09:34.443Z,52.57
2018-11-06T15:12:04.810Z,46.13
2018-11-06T15:14:35.162Z,53.50
2018-11-06T15:17:05.490Z,54.10
2018-11-06T15:19:35.784Z,54.40
2018-11-06T15:22:06.307Z,51.80
2018-11-06T15:24:36.882Z,53.60
2018-11-06T15:27:07.377Z,55.03
2018-11-06T15:29:37.696Z,58.43
2018-11-06T15:32:08.103Z,55.60
2018-11-06T15:34:39.019Z,55.37
2018-11-06T15:37:09.429Z,56.90
2018-11-06T15:39:39.787Z,59.87
2018-11-06T15:42:10.310Z,60.60
2018-11-06T15:44:40.521Z,66.60
2018-11-06T15:47:11.030Z,60.80
2018-11-06T15:49:41.454Z,58.57
2018-11-06T15:52:11.750Z,53.50
2018-11-06T15:54:42.314Z,67.77
2018-11-06T15:57:12.861Z,63.77
2018-11-06T15:59:43.318Z,66.03
2018-11-06T16:02:13.899Z,68.17
2018-11-06T16:04:44.184Z,66.60
2018-11-06T16:07:15.251Z,68.43
2018-11-06T16:09:45.596Z,61.77
2018-11-06T16:12:16.047Z,71.53
2018-11-06T16:14:46.637Z,64.63
2018-11-06T16:17:16.957Z,72.93
2018-11-06T16:19:47.607Z,63.87
2018-11-06T16:22:18.165Z,62.00
2018-11-06T16:24:48.954Z,69.23
2018-11-06T16:27:19.507Z,60.17
2018-11-06T16:29:50.594Z,70.13
2018-11-06T16:32:20.978Z,62.20
2018-11-06T16:34:51.459Z,65.23
2018-11-06T16:37:22.448Z,72.17
2018-11-06T16:39:52.959Z,67.70
2018-11-06T16:42:23.263Z,62.83
2018-11-06T16:44:53.581Z,63.97
2018-11-06T16:47:23.948Z,67.97
2018-11-06T16:49:54.506Z,68.90
2018-11-06T16:52:25.602Z,65.47
2018-11-06T16:54:56.136Z,69.30
2018-11-06T16:57:26.576Z,67.50
2018-11-06T16:59:56.785Z,67.53
2018-11-06T17:02:27.350Z,76.40
2018-11-06T17:04:57.834Z,71.23
2018-11-06T17:07:28.148Z,74.23
2018-11-06T17:09:58.539Z,81.87
2018-11-06T17:12:29.041Z,71.10
2018-11-06T17:14:59.300Z,77.07
2018-11-06T17:17:29.519Z,80.23
2018-11-06T17:19:59.847Z,82.13
2018-11-06T17:22:30.120Z,70.60
2018-11-06T17:25:00.520Z,79.47
2018-11-06T17:27:31.547Z,82.00
2018-11-06T17:30:02.009Z,82.83
2018-11-06T17:32:32.469Z,76.60
2018-11-06T17:35:02.727Z,77.67
2018-11-06T17:37:34.054Z,76.70
2018-11-06T17:40:04.439Z,113.67
2018-11-06T17:42:37.671Z,81.23
2018-11-06T17:45:11.041Z,81.53
2018-11-06T17:47:41.665Z,80.43
2018-11-06T17:50:13.419Z,79.10
2018-11-06T17:52:43.757Z,93.53
2018-11-06T17:55:15.650Z,81.50
2018-11-06T17:57:45.946Z,79.30
2018-11-06T18:00:19.826Z,85.77
2018-11-06T18:02:50.281Z,91.17
2018-11-06T18:05:22.059Z,74.27
2018-11-06T18:07:52.464Z,75.27
2018-11-06T18:10:23.202Z,83.03
2018-11-06T18:12:53.716Z,88.90
2018-11-06T18:15:24.044Z,79.60
2018-11-06T18:17:54.640Z,92.47
2018-11-06T18:20:24.898Z,83.20
2018-11-06T18:22:55.832Z,90.33
2018-11-06T18:25:26.114Z,92.83
2018-11-06T18:27:57.304Z,93.73
2018-11-06T18:30:27.581Z,86.37
2018-11-06T18:32:57.968Z,92.00
2018-11-06T18:35:28.422Z,89.47
2018-11-06T18:37:58.830Z,83.60
2018-11-06T18:40:28.899Z,90.80
2018-11-06T18:42:59.273Z,93.60
2018-11-06T18:45:29.368Z,100.93
2018-11-06T18:47:59.680Z,103.23
2018-11-06T18:50:29.976Z,93.70
2018-11-06T18:53:00.278Z,97.57
2018-11-06T18:55:30.629Z,92.57
2018-11-06T18:58:01.117Z,85.50
2018-11-06T19:00:31.527Z,98.47
2018-11-06T19:03:02.228Z,101.83
2018-11-06T19:05:32.665Z,109.60
2018-11-06T19:08:03.245Z,94.90
2018-11-06T19:10:33.549Z,110.23
2018-11-06T19:13:03.847Z,96.30
2018-11-06T19:15:34.296Z,90.87
2018-11-06T19:18:04.718Z,111.83
2018-11-06T19:20:35.065Z,108.93
2018-11-06T19:23:05.899Z,102.30
2018-11-06T19:25:36.643Z,111.63
2018-11-06T19:28:07.683Z,114.10
2018-11-06T19:30:38.249Z,107.90
2018-11-06T19:33:08.412Z,110.23
2018-11-06T19:35:38.934Z,97.70
2018-11-06T19:38:08.953Z,134.53
2018-11-06T19:40:39.473Z,118.53
2018-11-06T19:43:09.875Z,102.77
2018-11-06T19:45:40.419Z,110.53
2018-11-06T19:48:10.807Z,98.80
2018-11-06T19:50:41.941Z,112.10
2018-11-06T19:53:12.544Z,110.17
2018-11-06T19:55:42.942Z,112.67
2018-11-06T19:58:13.226Z,106.63
2018-11-06T20:00:43.609Z,100.77
2018-11-06T20:03:13.954Z,103.33
2018-11-06T20:05:44.380Z,106.90
2018-11-06T20:08:14.700Z,110.77
2018-11-06T20:10:45.133Z,112.20
2018-11-06T20:13:15.336Z,108.70
2018-11-06T20:15:45.744Z,100.40
2018-11-06T20:18:16.214Z,96.63
2018-11-06T20:20:46.728Z,88.10
2018-11-06T20:23:17.073Z,96.23
2018-11-06T20:25:47.524Z,95.43
2018-11-06T20:28:18.016Z,106.37
2018-11-06T20:30:48.575Z,93.10
2018-11-06T20:33:19.035Z,90.20
2018-11-06T20:35:49.250Z,93.23
2018-11-06T20:38:19.752Z,96.97
2018-11-06T20:40:50.340Z,119.00
2018-11-06T20:43:20.804Z,104.80
2018-11-06T20:45:51.141Z,111.27
2018-11-06T20:48:21.692Z,120.47
2018-11-06T20:50:52.344Z,121.80
2018-11-06T20:53:23.094Z,112.03
2018-11-06T20:55:53.291Z,135.37
2018-11-06T20:58:23.793Z,136.40
2018-11-06T21:00:54.610Z,132.87
2018-11-06T21:03:25.119Z,125.53
2018-11-06T21:05:55.755Z,128.27
2018-11-06T21:08:26.312Z,119.00
2018-11-06T21:10:57.004Z,145.50
2018-11-06T21:13:27.625Z,109.83
2018-11-06T21:15:57.931Z,112.37
2018-11-06T21:18:28.361Z,113.43
2018-11-06T21:20:59.270Z,107.97
2018-11-06T21:23:29.726Z,112.70
2018-11-06T21:26:00.261Z,124.83
2018-11-06T21:28:30.394Z,118.17
2018-11-06T21:31:00.742Z,136.07
2018-11-06T21:33:31.077Z,117.20
2018-11-06T21:36:01.363Z,126.93
2018-11-06T21:38:31.786Z,128.87
2018-11-06T21:41:02.113Z,116.73
2018-11-06T21:43:32.406Z,120.97
2018-11-06T21:46:03.443Z,130.27
2018-11-06T21:48:33.824Z,134.17
2018-11-06T21:51:04.370Z,133.10
2018-11-06T21:53:34.794Z,134.03
2018-11-06T21:56:05.115Z,114.57
2018-11-06T21:58:35.635Z,120.00
2018-11-06T22:01:06.057Z,130.67
2018-11-06T22:03:36.415Z,127.40
2018-11-06T22:06:06.843Z,135.40
2018-11-06T22:08:37.283Z,133.40
2018-11-06T22:11:07.740Z,128.10
2018-11-06T22:13:38.106Z,128.10
2018-11-06T22:16:08.509Z,128.47
2018-11-06T22:18:39.079Z,125.73
2018-11-06T22:21:09.575Z,120.60
2018-11-06T22:23:39.964Z,137.07
2018-11-06T22:26:10.386Z,124.00
2018-11-06T22:28:40.833Z,121.53
2018-11-06T22:31:11.162Z,127.53
2018-11-06T22:33:41.644Z,128.37
2018-11-06T22:36:12.245Z,119.73
2018-11-06T22:38:42.556Z,130.13
2018-11-06T22:41:12.926Z,119.20
2018-11-06T22:43:43.404Z,133.23
2018-11-06T22:46:13.891Z,124.90
2018-11-06T22:48:44.694Z,118.47
2018-11-06T22:51:14.868Z,123.97
2018-11-06T22:53:45.420Z,115.00
2018-11-06T22:56:15.897Z,126.07
2018-11-06T22:58:46.390Z,121.87
2018-11-06T23:01:21.723Z,135.90
2018-11-06T23:03:52.789Z,122.53
2018-11-06T23:06:23.415Z,109.70
2018-11-06T23:08:53.872Z,118.77
2018-11-06T23:11:24.452Z,117.03
2018-11-06T23:13:54.799Z,116.70
2018-11-06T23:16:25.178Z,110.53
2018-11-06T23:18:55.634Z,115.07
2018-11-06T23:21:25.954Z,122.20
2018-11-06T23:23:56.540Z,119.47
2018-11-06T23:26:26.915Z,125.20
2018-11-06T23:28:57.220Z,117.27
2018-11-06T23:31:27.715Z,107.83
2018-11-06T23:33:58.185Z,101.23
2018-11-06T23:36:28.391Z,102.53
2018-11-06T23:38:58.862Z,104.70
2018-11-06T23:41:29.170Z,113.43
2018-11-06T23:43:59.814Z,120.87
2018-11-06T23:46:30.125Z,115.23
2018-11-06T23:49:00.319Z,132.83
2018-11-06T23:51:30.580Z,125.93
2018-11-06T23:54:01.077Z,127.83
2018-11-06T23:56:31.402Z,121.70
2018-11-06T23:59:01.935Z,133.00
